sensor_id;sensor_type;location;lat;lon;timestamp;P1;durP1;ratioP1;P2;durP2;ratioP2
31866;SDS011;18431;45.580;-122.680;2022-09-09T00:04:34;2.25;;;1.20;;
31866;SDS011;18431;45.580;-122.680;2022-09-09T00:15:39;3.15;;;1.10;;
31866;SDS011;18431;45.580;-122.680;2022-09-09T00:21:11;2.85;;;1.32;;
31866;SDS011;18431;45.580;-122.680;2022-09-09T00:23:38;3.02;;;1.20;;
31866;SDS011;18431;45.580;-122.680;2022-09-09T00:26:13;1.67;;;1.07;;
31866;SDS011;18431;45.580;-122.680;2022-09-09T00:31:40;1.17;;;0.95;;
31866;SDS011;18431;45.580;-122.680;2022-09-09T00:34:18;1.87;;;0.93;;
31866;SDS011;18431;45.580;-122.680;2022-09-09T00:36:49;1.80;;;1.00;;
31866;SDS011;18431;45.580;-122.680;2022-09-09T00:39:41;1.77;;;0.90;;
31866;SDS011;18431;45.580;-122.680;2022-09-09T00:42:15;2.17;;;1.00;;
31866;SDS011;18431;45.580;-122.680;2022-09-09T00:44:56;1.57;;;0.90;;
31866;SDS011;18431;45.580;-122.680;2022-09-09T00:47:46;1.22;;;1.00;;
31866;SDS011;18431;45.580;-122.680;2022-09-09T00:58:37;3.95;;;1.00;;
31866;SDS011;18431;45.580;-122.680;2022-09-09T01:01:11;3.50;;;1.22;;
31866;SDS011;18431;45.580;-122.680;2022-09-09T01:06:15;2.08;;;0.80;;
31866;SDS011;18431;45.580;-122.680;2022-09-09T01:11:25;1.92;;;1.35;;
31866;SDS011;18431;45.580;-122.680;2022-09-09T01:14:01;1.12;;;0.70;;
31866;SDS011;18431;45.580;-122.680;2022-09-09T01:16:28;1.22;;;0.85;;
31866;SDS011;18431;45.580;-122.680;2022-09-09T01:18:59;1.55;;;0.70;;
31866;SDS011;18431;45.580;-122.680;2022-09-09T01:21:43;0.65;;;0.62;;
31866;SDS011;18431;45.580;-122.680;2022-09-09T01:27:06;1.90;;;0.82;;
31866;SDS011;18431;45.580;-122.680;2022-09-09T01:29:37;1.50;;;0.70;;
31866;SDS011;18431;45.580;-122.680;2022-09-09T01:35:39;2.15;;;1.00;;
31866;SDS011;18431;45.580;-122.680;2022-09-09T01:38:00;2.55;;;1.00;;
31866;SDS011;18431;45.580;-122.680;2022-09-09T01:40:30;1.40;;;1.07;;
31866;SDS011;18431;45.580;-122.680;2022-09-09T01:43:00;1.30;;;0.90;;
31866;SDS011;18431;45.580;-122.680;2022-09-09T01:45:30;1.10;;;0.80;;
31866;SDS011;18431;45.580;-122.680;2022-09-09T01:48:00;1.92;;;1.02;;
31866;SDS011;18431;45.580;-122.680;2022-09-09T01:50:30;2.08;;;1.00;;
31866;SDS011;18431;45.580;-122.680;2022-09-09T01:53:00;1.20;;;0.80;;
31866;SDS011;18431;45.580;-122.680;2022-09-09T01:58:31;0.90;;;0.80;;
31866;SDS011;18431;45.580;-122.680;2022-09-09T02:01:12;1.37;;;0.90;;
31866;SDS011;18431;45.580;-122.680;2022-09-09T02:03:40;1.57;;;0.85;;
31866;SDS011;18431;45.580;-122.680;2022-09-09T02:08:52;1.40;;;0.60;;
31866;SDS011;18431;45.580;-122.680;2022-09-09T02:11:21;1.52;;;0.72;;
31866;SDS011;18431;45.580;-122.680;2022-09-09T02:14:00;1.25;;;0.70;;
31866;SDS011;18431;45.580;-122.680;2022-09-09T02:19:18;1.40;;;0.65;;
31866;SDS011;18431;45.580;-122.680;2022-09-09T02:21:56;2.25;;;0.98;;
31866;SDS011;18431;45.580;-122.680;2022-09-09T02:24:28;3.70;;;0.70;;
31866;SDS011;18431;45.580;-122.680;2022-09-09T02:27:03;2.15;;;0.93;;
31866;SDS011;18431;45.580;-122.680;2022-09-09T02:29:40;2.12;;;0.90;;
31866;SDS011;18431;45.580;-122.680;2022-09-09T02:32:19;2.45;;;0.85;;
31866;SDS011;18431;45.580;-122.680;2022-09-09T02:34:47;1.62;;;0.93;;
31866;SDS011;18431;45.580;-122.680;2022-09-09T02:37:18;0.82;;;0.65;;
31866;SDS011;18431;45.580;-122.680;2022-09-09T02:39:50;2.75;;;0.90;;
31866;SDS011;18431;45.580;-122.680;2022-09-09T02:42:20;1.57;;;0.62;;
31866;SDS011;18431;45.580;-122.680;2022-09-09T02:44:51;0.72;;;0.60;;
31866;SDS011;18431;45.580;-122.680;2022-09-09T02:50:08;1.47;;;1.00;;
31866;SDS011;18431;45.580;-122.680;2022-09-09T02:55:31;1.05;;;0.70;;
31866;SDS011;18431;45.580;-122.680;2022-09-09T02:58:01;2.15;;;0.70;;
31866;SDS011;18431;45.580;-122.680;2022-09-09T03:00:48;1.37;;;0.85;;
31866;SDS011;18431;45.580;-122.680;2022-09-09T03:03:18;2.47;;;1.00;;
31866;SDS011;18431;45.580;-122.680;2022-09-09T03:05:49;1.32;;;0.90;;
31866;SDS011;18431;45.580;-122.680;2022-09-09T03:08:26;1.65;;;0.70;;
31866;SDS011;18431;45.580;-122.680;2022-09-09T03:10:57;2.00;;;0.60;;
31866;SDS011;18431;45.580;-122.680;2022-09-09T03:13:28;1.50;;;0.80;;
31866;SDS011;18431;45.580;-122.680;2022-09-09T03:15:58;2.20;;;0.88;;
31866;SDS011;18431;45.580;-122.680;2022-09-09T03:18:28;1.12;;;0.70;;
31866;SDS011;18431;45.580;-122.680;2022-09-09T03:20:59;1.00;;;0.70;;
31866;SDS011;18431;45.580;-122.680;2022-09-09T03:23:29;1.72;;;0.85;;
31866;SDS011;18431;45.580;-122.680;2022-09-09T03:26:00;1.22;;;0.80;;
31866;SDS011;18431;45.580;-122.680;2022-09-09T03:28:33;1.22;;;0.80;;
31866;SDS011;18431;45.580;-122.680;2022-09-09T03:31:03;1.00;;;0.80;;
31866;SDS011;18431;45.580;-122.680;2022-09-09T03:33:35;1.40;;;0.90;;
31866;SDS011;18431;45.580;-122.680;2022-09-09T03:36:05;1.20;;;0.75;;
31866;SDS011;18431;45.580;-122.680;2022-09-09T03:38:36;2.42;;;1.00;;
31866;SDS011;18431;45.580;-122.680;2022-09-09T03:41:06;0.90;;;0.80;;
31866;SDS011;18431;45.580;-122.680;2022-09-09T03:43:37;1.87;;;1.10;;
31866;SDS011;18431;45.580;-122.680;2022-09-09T03:46:09;1.77;;;0.90;;
31866;SDS011;18431;45.580;-122.680;2022-09-09T03:48:42;1.00;;;0.80;;
31866;SDS011;18431;45.580;-122.680;2022-09-09T03:51:11;2.12;;;1.10;;
31866;SDS011;18431;45.580;-122.680;2022-09-09T03:53:41;1.00;;;0.68;;
31866;SDS011;18431;45.580;-122.680;2022-09-09T03:56:12;1.82;;;0.75;;
31866;SDS011;18431;45.580;-122.680;2022-09-09T03:58:48;0.72;;;0.70;;
31866;SDS011;18431;45.580;-122.680;2022-09-09T04:01:18;0.70;;;0.70;;
31866;SDS011;18431;45.580;-122.680;2022-09-09T04:03:49;1.30;;;1.10;;
31866;SDS011;18431;45.580;-122.680;2022-09-09T04:06:23;0.90;;;0.80;;
31866;SDS011;18431;45.580;-122.680;2022-09-09T04:08:55;1.07;;;0.70;;
31866;SDS011;18431;45.580;-122.680;2022-09-09T04:11:28;1.35;;;0.90;;
31866;SDS011;18431;45.580;-122.680;2022-09-09T04:13:58;0.98;;;0.90;;
31866;SDS011;18431;45.580;-122.680;2022-09-09T04:16:31;0.98;;;0.90;;
31866;SDS011;18431;45.580;-122.680;2022-09-09T04:19:03;0.90;;;0.90;;
31866;SDS011;18431;45.580;-122.680;2022-09-09T04:21:52;1.02;;;0.90;;
31866;SDS011;18431;45.580;-122.680;2022-09-09T04:24:22;0.98;;;0.80;;
31866;SDS011;18431;45.580;-122.680;2022-09-09T04:26:53;0.68;;;0.68;;
31866;SDS011;18431;45.580;-122.680;2022-09-09T04:29:23;1.60;;;0.70;;
31866;SDS011;18431;45.580;-122.680;2022-09-09T04:31:53;0.80;;;0.80;;
31866;SDS011;18431;45.580;-122.680;2022-09-09T04:34:23;1.00;;;0.70;;
31866;SDS011;18431;45.580;-122.680;2022-09-09T04:36:53;1.40;;;0.95;;
31866;SDS011;18431;45.580;-122.680;2022-09-09T04:39:23;0.95;;;0.72;;
31866;SDS011;18431;45.580;-122.680;2022-09-09T04:41:53;0.80;;;0.80;;
31866;SDS011;18431;45.580;-122.680;2022-09-09T04:44:23;0.98;;;0.60;;
31866;SDS011;18431;45.580;-122.680;2022-09-09T04:46:53;2.80;;;0.80;;
31866;SDS011;18431;45.580;-122.680;2022-09-09T04:49:23;0.53;;;0.47;;
31866;SDS011;18431;45.580;-122.680;2022-09-09T04:51:53;1.65;;;0.70;;
31866;SDS011;18431;45.580;-122.680;2022-09-09T04:54:27;1.10;;;0.60;;
31866;SDS011;18431;45.580;-122.680;2022-09-09T04:56:57;1.02;;;0.70;;
31866;SDS011;18431;45.580;-122.680;2022-09-09T04:59:27;0.80;;;0.70;;
31866;SDS011;18431;45.580;-122.680;2022-09-09T05:01:57;0.82;;;0.75;;
31866;SDS011;18431;45.580;-122.680;2022-09-09T05:04:28;2.10;;;0.57;;
31866;SDS011;18431;45.580;-122.680;2022-09-09T05:06:59;1.00;;;0.60;;
31866;SDS011;18431;45.580;-122.680;2022-09-09T05:09:28;0.85;;;0.68;;
31866;SDS011;18431;45.580;-122.680;2022-09-09T05:11:58;0.98;;;0.60;;
31866;SDS011;18431;45.580;-122.680;2022-09-09T05:14:29;0.60;;;0.60;;
31866;SDS011;18431;45.580;-122.680;2022-09-09T05:16:59;0.80;;;0.70;;
31866;SDS011;18431;45.580;-122.680;2022-09-09T05:19:29;0.72;;;0.72;;
31866;SDS011;18431;45.580;-122.680;2022-09-09T05:21:59;0.62;;;0.62;;
31866;SDS011;18431;45.580;-122.680;2022-09-09T05:24:29;1.10;;;0.65;;
31866;SDS011;18431;45.580;-122.680;2022-09-09T05:27:00;1.50;;;0.70;;
31866;SDS011;18431;45.580;-122.680;2022-09-09T05:29:30;2.80;;;0.60;;
31866;SDS011;18431;45.580;-122.680;2022-09-09T05:32:01;0.53;;;0.50;;
31866;SDS011;18431;45.580;-122.680;2022-09-09T05:34:31;0.88;;;0.70;;
31866;SDS011;18431;45.580;-122.680;2022-09-09T05:37:08;1.10;;;0.70;;
31866;SDS011;18431;45.580;-122.680;2022-09-09T05:39:39;1.15;;;0.53;;
31866;SDS011;18431;45.580;-122.680;2022-09-09T05:42:09;0.57;;;0.57;;
31866;SDS011;18431;45.580;-122.680;2022-09-09T05:44:39;0.57;;;0.50;;
31866;SDS011;18431;45.580;-122.680;2022-09-09T05:47:12;1.02;;;0.62;;
31866;SDS011;18431;45.580;-122.680;2022-09-09T05:49:42;0.98;;;0.70;;
31866;SDS011;18431;45.580;-122.680;2022-09-09T05:52:12;0.60;;;0.55;;
31866;SDS011;18431;45.580;-122.680;2022-09-09T05:54:42;0.57;;;0.50;;
31866;SDS011;18431;45.580;-122.680;2022-09-09T05:57:15;0.70;;;0.70;;
31866;SDS011;18431;45.580;-122.680;2022-09-09T05:59:46;0.50;;;0.47;;
31866;SDS011;18431;45.580;-122.680;2022-09-09T06:02:17;0.60;;;0.60;;
31866;SDS011;18431;45.580;-122.680;2022-09-09T06:04:47;1.85;;;0.60;;
31866;SDS011;18431;45.580;-122.680;2022-09-09T06:07:17;0.85;;;0.60;;
31866;SDS011;18431;45.580;-122.680;2022-09-09T06:09:47;0.37;;;0.33;;
31866;SDS011;18431;45.580;-122.680;2022-09-09T06:12:18;1.02;;;0.57;;
31866;SDS011;18431;45.580;-122.680;2022-09-09T06:14:49;0.57;;;0.57;;
31866;SDS011;18431;45.580;-122.680;2022-09-09T06:17:19;1.70;;;0.40;;
31866;SDS011;18431;45.580;-122.680;2022-09-09T06:19:49;1.55;;;0.57;;
31866;SDS011;18431;45.580;-122.680;2022-09-09T06:22:20;1.20;;;0.53;;
31866;SDS011;18431;45.580;-122.680;2022-09-09T06:24:51;0.60;;;0.42;;
31866;SDS011;18431;45.580;-122.680;2022-09-09T06:27:24;1.47;;;0.57;;
31866;SDS011;18431;45.580;-122.680;2022-09-09T06:29:55;0.90;;;0.65;;
31866;SDS011;18431;45.580;-122.680;2022-09-09T06:32:25;1.27;;;0.50;;
31866;SDS011;18431;45.580;-122.680;2022-09-09T06:34:58;2.35;;;0.70;;
31866;SDS011;18431;45.580;-122.680;2022-09-09T06:37:28;1.52;;;0.60;;
31866;SDS011;18431;45.580;-122.680;2022-09-09T06:39:58;0.70;;;0.53;;
31866;SDS011;18431;45.580;-122.680;2022-09-09T06:45:17;0.53;;;0.50;;
31866;SDS011;18431;45.580;-122.680;2022-09-09T06:47:47;1.85;;;0.68;;
31866;SDS011;18431;45.580;-122.680;2022-09-09T06:50:16;1.27;;;0.80;;
31866;SDS011;18431;45.580;-122.680;2022-09-09T06:52:48;0.78;;;0.37;;
31866;SDS011;18431;45.580;-122.680;2022-09-09T06:55:18;0.60;;;0.60;;
31866;SDS011;18431;45.580;-122.680;2022-09-09T06:57:48;1.30;;;0.55;;
31866;SDS011;18431;45.580;-122.680;2022-09-09T07:00:19;0.75;;;0.60;;
31866;SDS011;18431;45.580;-122.680;2022-09-09T07:02:50;0.60;;;0.50;;
31866;SDS011;18431;45.580;-122.680;2022-09-09T07:05:20;1.20;;;0.60;;
31866;SDS011;18431;45.580;-122.680;2022-09-09T07:07:50;1.00;;;0.50;;
31866;SDS011;18431;45.580;-122.680;2022-09-09T07:10:20;1.32;;;0.53;;
31866;SDS011;18431;45.580;-122.680;2022-09-09T07:12:55;0.60;;;0.60;;
31866;SDS011;18431;45.580;-122.680;2022-09-09T07:15:22;1.55;;;0.78;;
31866;SDS011;18431;45.580;-122.680;2022-09-09T07:17:52;0.53;;;0.50;;
31866;SDS011;18431;45.580;-122.680;2022-09-09T07:20:21;0.53;;;0.53;;
31866;SDS011;18431;45.580;-122.680;2022-09-09T07:22:54;0.50;;;0.50;;
31866;SDS011;18431;45.580;-122.680;2022-09-09T07:25:23;0.90;;;0.68;;
31866;SDS011;18431;45.580;-122.680;2022-09-09T07:27:54;0.45;;;0.45;;
31866;SDS011;18431;45.580;-122.680;2022-09-09T07:30:25;1.35;;;0.70;;
31866;SDS011;18431;45.580;-122.680;2022-09-09T07:32:56;0.60;;;0.60;;
31866;SDS011;18431;45.580;-122.680;2022-09-09T07:35:26;1.15;;;0.75;;
31866;SDS011;18431;45.580;-122.680;2022-09-09T07:37:56;1.07;;;0.70;;
31866;SDS011;18431;45.580;-122.680;2022-09-09T07:40:26;0.60;;;0.55;;
31866;SDS011;18431;45.580;-122.680;2022-09-09T07:42:56;0.80;;;0.68;;
31866;SDS011;18431;45.580;-122.680;2022-09-09T07:45:26;1.15;;;0.60;;
31866;SDS011;18431;45.580;-122.680;2022-09-09T07:47:56;1.27;;;0.82;;
31866;SDS011;18431;45.580;-122.680;2022-09-09T07:50:26;1.85;;;0.50;;
31866;SDS011;18431;45.580;-122.680;2022-09-09T07:52:56;0.85;;;0.70;;
31866;SDS011;18431;45.580;-122.680;2022-09-09T07:55:26;0.50;;;0.50;;
31866;SDS011;18431;45.580;-122.680;2022-09-09T07:57:57;1.12;;;0.70;;
31866;SDS011;18431;45.580;-122.680;2022-09-09T08:00:27;1.15;;;0.65;;
31866;SDS011;18431;45.580;-122.680;2022-09-09T08:02:57;0.85;;;0.72;;
31866;SDS011;18431;45.580;-122.680;2022-09-09T08:05:28;1.32;;;0.93;;
31866;SDS011;18431;45.580;-122.680;2022-09-09T08:07:57;0.57;;;0.47;;
31866;SDS011;18431;45.580;-122.680;2022-09-09T08:10:27;1.65;;;0.75;;
31866;SDS011;18431;45.580;-122.680;2022-09-09T08:12:57;0.72;;;0.62;;
31866;SDS011;18431;45.580;-122.680;2022-09-09T08:15:27;1.25;;;0.62;;
31866;SDS011;18431;45.580;-122.680;2022-09-09T08:17:58;0.88;;;0.70;;
31866;SDS011;18431;45.580;-122.680;2022-09-09T08:20:29;0.82;;;0.65;;
31866;SDS011;18431;45.580;-122.680;2022-09-09T08:22:59;1.22;;;0.80;;
31866;SDS011;18431;45.580;-122.680;2022-09-09T08:25:29;0.78;;;0.60;;
31866;SDS011;18431;45.580;-122.680;2022-09-09T08:27:59;0.90;;;0.70;;
31866;SDS011;18431;45.580;-122.680;2022-09-09T08:30:29;0.90;;;0.65;;
31866;SDS011;18431;45.580;-122.680;2022-09-09T08:32:59;1.67;;;0.78;;
31866;SDS011;18431;45.580;-122.680;2022-09-09T08:35:28;1.12;;;0.85;;
31866;SDS011;18431;45.580;-122.680;2022-09-09T08:37:59;1.52;;;1.00;;
31866;SDS011;18431;45.580;-122.680;2022-09-09T08:40:33;2.42;;;0.93;;
31866;SDS011;18431;45.580;-122.680;2022-09-09T08:43:02;1.10;;;0.70;;
31866;SDS011;18431;45.580;-122.680;2022-09-09T08:45:42;2.10;;;0.85;;
31866;SDS011;18431;45.580;-122.680;2022-09-09T08:50:47;1.45;;;0.98;;
31866;SDS011;18431;45.580;-122.680;2022-09-09T08:53:20;1.22;;;0.75;;
31866;SDS011;18431;45.580;-122.680;2022-09-09T08:55:54;1.17;;;1.07;;
31866;SDS011;18431;45.580;-122.680;2022-09-09T08:58:29;2.55;;;1.05;;
31866;SDS011;18431;45.580;-122.680;2022-09-09T09:06:48;1.40;;;1.00;;
31866;SDS011;18431;45.580;-122.680;2022-09-09T09:09:36;0.80;;;0.60;;
31866;SDS011;18431;45.580;-122.680;2022-09-09T09:12:17;2.65;;;0.90;;
31866;SDS011;18431;45.580;-122.680;2022-09-09T09:14:51;1.12;;;1.00;;
31866;SDS011;18431;45.580;-122.680;2022-09-09T09:17:23;1.17;;;1.00;;
31866;SDS011;18431;45.580;-122.680;2022-09-09T09:19:54;1.47;;;1.10;;
31866;SDS011;18431;45.580;-122.680;2022-09-09T09:25:26;0.85;;;0.85;;
31866;SDS011;18431;45.580;-122.680;2022-09-09T09:28:03;1.05;;;0.85;;
31866;SDS011;18431;45.580;-122.680;2022-09-09T09:33:28;1.75;;;0.80;;
31866;SDS011;18431;45.580;-122.680;2022-09-09T09:35:59;1.77;;;1.00;;
31866;SDS011;18431;45.580;-122.680;2022-09-09T09:38:30;1.22;;;1.00;;
31866;SDS011;18431;45.580;-122.680;2022-09-09T09:41:01;1.05;;;0.90;;
31866;SDS011;18431;45.580;-122.680;2022-09-09T09:43:32;0.98;;;0.98;;
31866;SDS011;18431;45.580;-122.680;2022-09-09T09:46:03;2.52;;;1.10;;
31866;SDS011;18431;45.580;-122.680;2022-09-09T09:48:34;1.40;;;1.30;;
31866;SDS011;18431;45.580;-122.680;2022-09-09T09:51:07;1.32;;;1.10;;
31866;SDS011;18431;45.580;-122.680;2022-09-09T09:53:40;1.52;;;1.02;;
31866;SDS011;18431;45.580;-122.680;2022-09-09T09:56:11;2.10;;;1.15;;
31866;SDS011;18431;45.580;-122.680;2022-09-09T10:01:27;1.20;;;1.10;;
31866;SDS011;18431;45.580;-122.680;2022-09-09T10:06:32;1.27;;;1.17;;
31866;SDS011;18431;45.580;-122.680;2022-09-09T10:09:17;1.77;;;1.07;;
31866;SDS011;18431;45.580;-122.680;2022-09-09T10:15:20;1.30;;;1.20;;
31866;SDS011;18431;45.580;-122.680;2022-09-09T10:18:08;1.45;;;1.17;;
31866;SDS011;18431;45.580;-122.680;2022-09-09T10:26:24;1.80;;;1.25;;
31866;SDS011;18431;45.580;-122.680;2022-09-09T10:29:10;2.05;;;1.47;;
31866;SDS011;18431;45.580;-122.680;2022-09-09T10:34:40;1.50;;;1.40;;
31866;SDS011;18431;45.580;-122.680;2022-09-09T10:38:08;1.67;;;1.40;;
31866;SDS011;18431;45.580;-122.680;2022-09-09T10:39:55;2.00;;;1.30;;
31866;SDS011;18431;45.580;-122.680;2022-09-09T10:42:34;1.70;;;1.30;;
31866;SDS011;18431;45.580;-122.680;2022-09-09T10:53:24;1.75;;;1.37;;
31866;SDS011;18431;45.580;-122.680;2022-09-09T10:55:59;2.37;;;1.40;;
31866;SDS011;18431;45.580;-122.680;2022-09-09T10:58:29;1.70;;;1.40;;
31866;SDS011;18431;45.580;-122.680;2022-09-09T11:01:05;2.58;;;1.30;;
31866;SDS011;18431;45.580;-122.680;2022-09-09T11:03:35;2.42;;;1.47;;
31866;SDS011;18431;45.580;-122.680;2022-09-09T11:06:16;2.83;;;1.32;;
31866;SDS011;18431;45.580;-122.680;2022-09-09T11:08:43;2.58;;;1.65;;
31866;SDS011;18431;45.580;-122.680;2022-09-09T11:24:51;2.00;;;1.60;;
31866;SDS011;18431;45.580;-122.680;2022-09-09T11:27:26;1.47;;;1.37;;
31866;SDS011;18431;45.580;-122.680;2022-09-09T11:30:18;2.27;;;1.42;;
31866;SDS011;18431;45.580;-122.680;2022-09-09T11:35:47;1.50;;;1.40;;
31866;SDS011;18431;45.580;-122.680;2022-09-09T11:38:26;2.00;;;1.52;;
31866;SDS011;18431;45.580;-122.680;2022-09-09T11:41:11;2.00;;;1.50;;
31866;SDS011;18431;45.580;-122.680;2022-09-09T11:43:45;1.55;;;1.40;;
31866;SDS011;18431;45.580;-122.680;2022-09-09T11:46:57;1.72;;;1.50;;
31866;SDS011;18431;45.580;-122.680;2022-09-09T11:49:21;2.52;;;1.87;;
31866;SDS011;18431;45.580;-122.680;2022-09-09T11:51:55;1.67;;;1.55;;
31866;SDS011;18431;45.580;-122.680;2022-09-09T11:54:31;1.90;;;1.62;;
31866;SDS011;18431;45.580;-122.680;2022-09-09T11:57:04;2.02;;;1.50;;
31866;SDS011;18431;45.580;-122.680;2022-09-09T11:59:37;3.08;;;1.70;;
31866;SDS011;18431;45.580;-122.680;2022-09-09T12:02:25;1.70;;;1.60;;
31866;SDS011;18431;45.580;-122.680;2022-09-09T12:05:05;2.05;;;1.50;;
31866;SDS011;18431;45.580;-122.680;2022-09-09T12:07:57;2.10;;;1.87;;
31866;SDS011;18431;45.580;-122.680;2022-09-09T12:10:35;2.33;;;1.70;;
31866;SDS011;18431;45.580;-122.680;2022-09-09T12:13:19;1.87;;;1.55;;
31866;SDS011;18431;45.580;-122.680;2022-09-09T12:15:51;2.00;;;1.80;;
31866;SDS011;18431;45.580;-122.680;2022-09-09T12:18:26;2.15;;;1.55;;
31866;SDS011;18431;45.580;-122.680;2022-09-09T12:34:31;2.00;;;1.80;;
31866;SDS011;18431;45.580;-122.680;2022-09-09T12:37:18;2.08;;;1.60;;
31866;SDS011;18431;45.580;-122.680;2022-09-09T12:39:49;2.33;;;1.60;;
31866;SDS011;18431;45.580;-122.680;2022-09-09T12:42:26;2.40;;;2.02;;
31866;SDS011;18431;45.580;-122.680;2022-09-09T12:44:57;1.70;;;1.60;;
31866;SDS011;18431;45.580;-122.680;2022-09-09T12:47:36;2.10;;;1.90;;
31866;SDS011;18431;45.580;-122.680;2022-09-09T12:50:27;2.20;;;1.82;;
31866;SDS011;18431;45.580;-122.680;2022-09-09T12:52:45;1.85;;;1.75;;
31866;SDS011;18431;45.580;-122.680;2022-09-09T12:55:18;2.85;;;1.90;;
31866;SDS011;18431;45.580;-122.680;2022-09-09T12:57:51;2.22;;;1.85;;
31866;SDS011;18431;45.580;-122.680;2022-09-09T13:00:22;2.10;;;1.90;;
31866;SDS011;18431;45.580;-122.680;2022-09-09T13:02:53;1.90;;;1.70;;
31866;SDS011;18431;45.580;-122.680;2022-09-09T13:05:31;2.20;;;1.90;;
31866;SDS011;18431;45.580;-122.680;2022-09-09T13:08:07;2.17;;;1.80;;
31866;SDS011;18431;45.580;-122.680;2022-09-09T13:11:14;1.98;;;1.70;;
31866;SDS011;18431;45.580;-122.680;2022-09-09T13:13:24;1.90;;;1.80;;
31866;SDS011;18431;45.580;-122.680;2022-09-09T13:16:18;2.60;;;1.92;;
31866;SDS011;18431;45.580;-122.680;2022-09-09T13:19:07;2.12;;;1.92;;
31866;SDS011;18431;45.580;-122.680;2022-09-09T13:21:33;2.30;;;1.65;;
31866;SDS011;18431;45.580;-122.680;2022-09-09T13:24:05;2.17;;;1.70;;
31866;SDS011;18431;45.580;-122.680;2022-09-09T13:26:37;2.58;;;1.80;;
31866;SDS011;18431;45.580;-122.680;2022-09-09T13:29:14;3.00;;;1.98;;
31866;SDS011;18431;45.580;-122.680;2022-09-09T13:31:40;2.27;;;1.80;;
31866;SDS011;18431;45.580;-122.680;2022-09-09T13:34:26;1.80;;;1.70;;
31866;SDS011;18431;45.580;-122.680;2022-09-09T13:36:46;2.58;;;2.05;;
31866;SDS011;18431;45.580;-122.680;2022-09-09T13:39:16;2.22;;;1.95;;
31866;SDS011;18431;45.580;-122.680;2022-09-09T13:44:36;2.10;;;1.75;;
31866;SDS011;18431;45.580;-122.680;2022-09-09T13:49:51;2.67;;;1.70;;
31866;SDS011;18431;45.580;-122.680;2022-09-09T13:52:21;2.22;;;2.00;;
31866;SDS011;18431;45.580;-122.680;2022-09-09T13:54:53;1.80;;;1.70;;
31866;SDS011;18431;45.580;-122.680;2022-09-09T13:57:24;1.90;;;1.80;;
31866;SDS011;18431;45.580;-122.680;2022-09-09T14:00:13;2.15;;;1.77;;
31866;SDS011;18431;45.580;-122.680;2022-09-09T14:02:43;2.10;;;1.90;;
31866;SDS011;18431;45.580;-122.680;2022-09-09T14:05:13;1.92;;;1.72;;
31866;SDS011;18431;45.580;-122.680;2022-09-09T14:07:43;1.60;;;1.50;;
31866;SDS011;18431;45.580;-122.680;2022-09-09T14:10:13;2.45;;;2.00;;
31866;SDS011;18431;45.580;-122.680;2022-09-09T14:12:52;1.98;;;1.85;;
31866;SDS011;18431;45.580;-122.680;2022-09-09T14:15:22;2.33;;;2.10;;
31866;SDS011;18431;45.580;-122.680;2022-09-09T14:17:53;2.00;;;1.85;;
31866;SDS011;18431;45.580;-122.680;2022-09-09T14:20:23;2.50;;;1.87;;
31866;SDS011;18431;45.580;-122.680;2022-09-09T14:22:53;1.62;;;1.50;;
31866;SDS011;18431;45.580;-122.680;2022-09-09T14:25:24;2.02;;;1.92;;
31866;SDS011;18431;45.580;-122.680;2022-09-09T14:27:54;2.00;;;1.90;;
31866;SDS011;18431;45.580;-122.680;2022-09-09T14:30:24;2.22;;;1.90;;
31866;SDS011;18431;45.580;-122.680;2022-09-09T14:32:54;3.37;;;2.05;;
31866;SDS011;18431;45.580;-122.680;2022-09-09T14:35:24;2.70;;;1.80;;
31866;SDS011;18431;45.580;-122.680;2022-09-09T14:37:53;2.10;;;1.90;;
31866;SDS011;18431;45.580;-122.680;2022-09-09T14:40:23;1.80;;;1.70;;
31866;SDS011;18431;45.580;-122.680;2022-09-09T14:42:53;1.65;;;1.55;;
31866;SDS011;18431;45.580;-122.680;2022-09-09T14:45:23;1.92;;;1.82;;
31866;SDS011;18431;45.580;-122.680;2022-09-09T14:47:53;1.92;;;1.80;;
31866;SDS011;18431;45.580;-122.680;2022-09-09T14:50:24;2.27;;;1.77;;
31866;SDS011;18431;45.580;-122.680;2022-09-09T14:52:54;2.92;;;2.00;;
31866;SDS011;18431;45.580;-122.680;2022-09-09T14:55:31;2.12;;;1.82;;
31866;SDS011;18431;45.580;-122.680;2022-09-09T14:58:02;2.52;;;1.75;;
31866;SDS011;18431;45.580;-122.680;2022-09-09T15:00:33;2.17;;;1.75;;
31866;SDS011;18431;45.580;-122.680;2022-09-09T15:03:03;2.00;;;1.80;;
31866;SDS011;18431;45.580;-122.680;2022-09-09T15:05:33;2.10;;;1.80;;
31866;SDS011;18431;45.580;-122.680;2022-09-09T15:08:04;1.98;;;1.70;;
31866;SDS011;18431;45.580;-122.680;2022-09-09T15:10:34;2.12;;;1.72;;
31866;SDS011;18431;45.580;-122.680;2022-09-09T15:13:05;1.82;;;1.72;;
31866;SDS011;18431;45.580;-122.680;2022-09-09T15:15:35;1.90;;;1.80;;
31866;SDS011;18431;45.580;-122.680;2022-09-09T15:18:05;2.35;;;1.70;;
31866;SDS011;18431;45.580;-122.680;2022-09-09T15:20:34;2.20;;;1.50;;
31866;SDS011;18431;45.580;-122.680;2022-09-09T15:23:04;1.75;;;1.65;;
31866;SDS011;18431;45.580;-122.680;2022-09-09T15:25:35;2.02;;;1.55;;
31866;SDS011;18431;45.580;-122.680;2022-09-09T15:30:54;2.87;;;1.85;;
31866;SDS011;18431;45.580;-122.680;2022-09-09T15:33:24;1.62;;;1.52;;
31866;SDS011;18431;45.580;-122.680;2022-09-09T15:35:55;2.05;;;1.70;;
31866;SDS011;18431;45.580;-122.680;2022-09-09T15:38:25;1.87;;;1.67;;
31866;SDS011;18431;45.580;-122.680;2022-09-09T15:41:05;1.55;;;1.30;;
31866;SDS011;18431;45.580;-122.680;2022-09-09T15:43:35;2.30;;;1.60;;
31866;SDS011;18431;45.580;-122.680;2022-09-09T15:48:58;2.60;;;1.80;;
31866;SDS011;18431;45.580;-122.680;2022-09-09T15:54:15;1.80;;;1.70;;
31866;SDS011;18431;45.580;-122.680;2022-09-09T15:56:46;1.95;;;1.75;;
31866;SDS011;18431;45.580;-122.680;2022-09-09T15:59:17;1.77;;;1.62;;
31866;SDS011;18431;45.580;-122.680;2022-09-09T16:01:47;1.70;;;1.60;;
31866;SDS011;18431;45.580;-122.680;2022-09-09T16:04:19;1.80;;;1.70;;
31866;SDS011;18431;45.580;-122.680;2022-09-09T16:06:52;1.70;;;1.60;;
31866;SDS011;18431;45.580;-122.680;2022-09-09T16:09:24;2.25;;;1.57;;
31866;SDS011;18431;45.580;-122.680;2022-09-09T16:11:58;1.55;;;1.45;;
31866;SDS011;18431;45.580;-122.680;2022-09-09T16:14:31;1.65;;;1.55;;
31866;SDS011;18431;45.580;-122.680;2022-09-09T16:17:04;2.17;;;1.72;;
31866;SDS011;18431;45.580;-122.680;2022-09-09T16:19:34;1.92;;;1.60;;
31866;SDS011;18431;45.580;-122.680;2022-09-09T16:22:05;2.15;;;1.70;;
31866;SDS011;18431;45.580;-122.680;2022-09-09T16:24:35;1.75;;;1.65;;
31866;SDS011;18431;45.580;-122.680;2022-09-09T16:27:08;1.60;;;1.50;;
31866;SDS011;18431;45.580;-122.680;2022-09-09T16:29:36;1.70;;;1.60;;
31866;SDS011;18431;45.580;-122.680;2022-09-09T16:32:06;2.40;;;1.57;;
31866;SDS011;18431;45.580;-122.680;2022-09-09T16:34:37;2.25;;;1.70;;
31866;SDS011;18431;45.580;-122.680;2022-09-09T16:37:07;1.95;;;1.60;;
31866;SDS011;18431;45.580;-122.680;2022-09-09T16:39:38;1.60;;;1.50;;
31866;SDS011;18431;45.580;-122.680;2022-09-09T16:42:08;2.85;;;1.70;;
31866;SDS011;18431;45.580;-122.680;2022-09-09T16:44:38;1.70;;;1.60;;
31866;SDS011;18431;45.580;-122.680;2022-09-09T16:47:08;1.85;;;1.67;;
31866;SDS011;18431;45.580;-122.680;2022-09-09T16:49:38;1.67;;;1.57;;
31866;SDS011;18431;45.580;-122.680;2022-09-09T16:52:08;1.85;;;1.52;;
31866;SDS011;18431;45.580;-122.680;2022-09-09T16:54:38;1.50;;;1.40;;
31866;SDS011;18431;45.580;-122.680;2022-09-09T16:57:10;2.12;;;1.60;;